createdAt,value
2018-05-04T00:00:46.250Z,1019.62
2018-05-04T00:01:46.235Z,1019.62
2018-05-04T00:02:46.249Z,1019.67
2018-05-04T00:03:46.251Z,1019.62
2018-05-04T00:04:46.259Z,1019.62
2018-05-04T00:05:46.230Z,1019.65
2018-05-04T00:06:46.216Z,1019.63
2018-05-04T00:07:46.359Z,1019.66
2018-05-04T00:08:46.238Z,1019.63
2018-05-04T00:09:46.236Z,1019.64
2018-05-04T00:10:46.235Z,1019.57
2018-05-04T00:11:46.241Z,1019.65
2018-05-04T00:12:46.259Z,1019.68
2018-05-04T00:13:46.267Z,1019.68
2018-05-04T00:14:46.245Z,1019.66
2018-05-04T00:15:46.255Z,1019.67
2018-05-04T00:16:46.233Z,1019.66
2018-05-04T00:17:46.249Z,1019.7
2018-05-04T00:18:46.244Z,1019.63
2018-05-04T00:19:46.242Z,1019.63
2018-05-04T00:20:46.249Z,1019.68
2018-05-04T00:21:46.236Z,1019.66
2018-05-04T00:22:46.258Z,1019.61
2018-05-04T00:23:46.243Z,1019.6
2018-05-04T00:24:46.246Z,1019.61
2018-05-04T00:25:46.242Z,1019.62
2018-05-04T00:26:46.264Z,1019.58
2018-05-04T00:27:46.260Z,1019.55
2018-05-04T00:28:46.237Z,1019.63
2018-05-04T00:29:46.255Z,1019.56
2018-05-04T00:30:46.231Z,1019.58
2018-05-04T00:31:46.235Z,1019.57
2018-05-04T00:32:46.265Z,1019.61
2018-05-04T00:33:46.245Z,1019.59
2018-05-04T00:34:46.354Z,1019.59
2018-05-04T00:35:46.240Z,1019.61
2018-05-04T00:36:46.244Z,1019.63
2018-05-04T00:37:46.241Z,1019.62
2018-05-04T00:38:46.285Z,1019.63
2018-05-04T00:39:46.266Z,1019.64
2018-05-04T00:40:46.255Z,1019.62
2018-05-04T00:41:46.299Z,1019.59
2018-05-04T00:42:46.247Z,1019.65
2018-05-04T00:43:46.324Z,1019.6
2018-05-04T00:44:46.274Z,1019.64
2018-05-04T00:45:46.255Z,1019.61
2018-05-04T00:46:46.245Z,1019.54
2018-05-04T00:47:46.260Z,1019.55
2018-05-04T00:48:46.295Z,1019.51
2018-05-04T00:49:46.275Z,1019.49
2018-05-04T00:50:46.255Z,1019.58
2018-05-04T00:51:46.278Z,1019.49
2018-05-04T00:52:46.246Z,1019.5
2018-05-04T00:53:46.262Z,1019.5
2018-05-04T00:54:46.259Z,1019.48
2018-05-04T00:55:46.288Z,1019.51
2018-05-04T00:56:46.259Z,1019.53
2018-05-04T00:57:46.270Z,1019.49
2018-05-04T00:58:46.256Z,1019.55
2018-05-04T00:59:46.268Z,1019.54
2018-05-04T01:00:46.251Z,1019.57
2018-05-04T01:01:46.264Z,1019.57
2018-05-04T01:02:46.255Z,1019.57
2018-05-04T01:03:46.258Z,1019.63
2018-05-04T01:04:46.267Z,1019.61
2018-05-04T01:05:46.261Z,1019.56
2018-05-04T01:06:46.270Z,1019.57
2018-05-04T01:07:46.282Z,1019.57
2018-05-04T01:08:46.282Z,1019.63
2018-05-04T01:09:46.597Z,1019.64
2018-05-04T01:10:46.244Z,1019.65
2018-05-04T01:11:46.400Z,1019.53
2018-05-04T01:12:46.279Z,1019.63
2018-05-04T01:13:46.273Z,1019.62
2018-05-04T01:14:46.325Z,1019.56
2018-05-04T01:15:46.300Z,1019.56
2018-05-04T01:16:46.262Z,1019.57
2018-05-04T01:17:46.260Z,1019.59
2018-05-04T01:18:46.268Z,1019.61
2018-05-04T01:19:46.276Z,1019.56
2018-05-04T01:20:46.312Z,1019.57
2018-05-04T01:21:46.268Z,1019.54
2018-05-04T01:22:46.275Z,1019.64
2018-05-04T01:23:46.293Z,1019.65
2018-05-04T01:24:46.311Z,1019.67
2018-05-04T01:25:46.277Z,1019.69
2018-05-04T01:26:46.284Z,1019.75
2018-05-04T01:27:46.300Z,1019.71
2018-05-04T01:28:46.277Z,1019.7
2018-05-04T01:29:46.285Z,1019.71
2018-05-04T01:30:46.276Z,1019.7
2018-05-04T01:31:46.302Z,1019.65
2018-05-04T01:32:46.290Z,1019.66
2018-05-04T01:33:46.268Z,1019.67
2018-05-04T01:34:46.270Z,1019.67
2018-05-04T01:35:46.276Z,1019.68
2018-05-04T01:36:46.285Z,1019.72
2018-05-04T01:37:46.280Z,1019.71
2018-05-04T01:38:46.289Z,1019.71
2018-05-04T01:39:46.288Z,1019.73
2018-05-04T01:40:46.307Z,1019.74
2018-05-04T01:41:46.305Z,1019.73
2018-05-04T01:42:46.274Z,1019.68
2018-05-04T01:43:46.285Z,1019.67
2018-05-04T01:44:46.317Z,1019.7
2018-05-04T01:45:46.288Z,1019.73
2018-05-04T01:46:46.633Z,1019.71
2018-05-04T01:47:46.305Z,1019.72
2018-05-04T01:48:46.412Z,1019.69
2018-05-04T01:49:46.433Z,1019.74
2018-05-04T01:50:46.297Z,1019.71
2018-05-04T01:51:46.287Z,1019.67
2018-05-04T01:52:46.328Z,1019.72
2018-05-04T01:53:46.306Z,1019.69
2018-05-04T01:54:46.296Z,1019.7
2018-05-04T01:55:46.331Z,1019.71
2018-05-04T01:56:46.310Z,1019.73
2018-05-04T01:57:46.351Z,1019.7
2018-05-04T01:58:46.295Z,1019.69
2018-05-04T01:59:46.308Z,1019.67
2018-05-04T02:00:46.299Z,1019.73
2018-05-04T02:01:46.341Z,1019.67
2018-05-04T02:02:46.393Z,1019.71
2018-05-04T02:03:46.308Z,1019.77
2018-05-04T02:04:46.315Z,1019.81
2018-05-04T02:05:46.320Z,1019.75
2018-05-04T02:06:46.285Z,1019.72
2018-05-04T02:07:46.451Z,1019.77
2018-05-04T02:08:46.414Z,1019.75
2018-05-04T02:09:46.290Z,1019.77
2018-05-04T02:10:46.297Z,1019.75
2018-05-04T02:11:46.284Z,1019.83
2018-05-04T02:12:46.308Z,1019.78
2018-05-04T02:13:46.297Z,1019.78
2018-05-04T02:14:46.301Z,1019.77
2018-05-04T02:15:46.320Z,1019.8
2018-05-04T02:16:46.298Z,1019.78
2018-05-04T02:17:46.424Z,1019.82
2018-05-04T02:18:46.301Z,1019.82
2018-05-04T02:19:46.296Z,1019.88
2018-05-04T02:20:46.308Z,1019.86
2018-05-04T02:21:46.307Z,1019.88
2018-05-04T02:22:46.303Z,1019.86
2018-05-04T02:23:46.298Z,1019.87
2018-05-04T02:24:46.502Z,1019.84
2018-05-04T02:25:46.297Z,1019.86
2018-05-04T02:26:46.300Z,1019.83
2018-05-04T02:27:46.411Z,1019.87
2018-05-04T02:28:46.622Z,1019.87
2018-05-04T02:29:46.291Z,1019.82
2018-05-04T02:30:46.286Z,1019.81
2018-05-04T02:31:46.302Z,1019.85
2018-05-04T02:32:46.316Z,1019.84
2018-05-04T02:33:46.297Z,1019.86
2018-05-04T02:34:46.306Z,1019.87
2018-05-04T02:35:46.293Z,1019.89
2018-05-04T02:36:46.301Z,1019.92
2018-05-04T02:37:46.306Z,1019.93
2018-05-04T02:38:46.306Z,1019.99
2018-05-04T02:39:46.316Z,1020
2018-05-04T02:40:46.304Z,1020.05
2018-05-04T02:41:46.303Z,1020.06
2018-05-04T02:42:46.313Z,1020.09
2018-05-04T02:43:46.316Z,1020.03
2018-05-04T02:44:46.330Z,1020.08
2018-05-04T02:45:46.308Z,1020.06
2018-05-04T02:46:46.636Z,1020.09
2018-05-04T02:47:46.304Z,1020.08
2018-05-04T02:48:46.300Z,1020.09
2018-05-04T02:49:46.314Z,1020.11
2018-05-04T02:50:46.300Z,1020.11
2018-05-04T02:51:46.330Z,1020.13
2018-05-04T02:52:46.304Z,1020.12
2018-05-04T02:53:46.326Z,1020.09
2018-05-04T02:54:46.309Z,1020.12
2018-05-04T02:55:46.418Z,1020.08
2018-05-04T02:56:46.338Z,1020.08
2018-05-04T02:57:46.374Z,1020.11
2018-05-04T02:58:46.328Z,1020.08
2018-05-04T02:59:46.340Z,1020.04
2018-05-04T03:00:46.314Z,1020.12
2018-05-04T03:01:46.319Z,1020.1
2018-05-04T03:02:46.343Z,1020.07
2018-05-04T03:03:46.663Z,1020.03
2018-05-04T03:04:46.533Z,1020.04
2018-05-04T03:05:46.301Z,1020.03
2018-05-04T03:06:46.329Z,1020.04
2018-05-04T03:07:46.314Z,1020.04
2018-05-04T03:08:46.453Z,1020.01
2018-05-04T03:09:46.368Z,1020.03
2018-05-04T03:10:46.448Z,1019.97
2018-05-04T03:11:46.327Z,1019.98
2018-05-04T03:12:46.339Z,1019.96
2018-05-04T03:13:46.335Z,1019.98
2018-05-04T03:14:46.330Z,1020.03
2018-05-04T03:15:46.414Z,1020.01
2018-05-04T03:16:46.336Z,1020.03
2018-05-04T03:17:46.322Z,1020.06
2018-05-04T03:18:46.320Z,1020.02
2018-05-04T03:19:46.322Z,1020.01
2018-05-04T03:20:46.314Z,1020
2018-05-04T03:21:46.331Z,1019.98
2018-05-04T03:22:46.377Z,1019.98
2018-05-04T03:23:46.322Z,1020.01
2018-05-04T03:24:46.339Z,1019.99
2018-05-04T03:25:46.331Z,1020.09
2018-05-04T03:26:46.484Z,1020.07
2018-05-04T03:27:46.335Z,1020.1
2018-05-04T03:28:46.331Z,1020.13
2018-05-04T03:29:46.363Z,1020.11
2018-05-04T03:30:46.338Z,1020.09
2018-05-04T03:31:46.350Z,1020.12
2018-05-04T03:32:46.324Z,1020.09
2018-05-04T03:33:46.318Z,1020.14
2018-05-04T03:34:46.329Z,1020.07
2018-05-04T03:35:46.323Z,1020.11
2018-05-04T03:36:46.334Z,1020.12
2018-05-04T03:37:46.325Z,1020.15
2018-05-04T03:38:46.364Z,1020.15
2018-05-04T03:39:46.313Z,1020.2
2018-05-04T03:40:46.309Z,1020.24
2018-05-04T03:41:46.318Z,1020.21
2018-05-04T03:42:46.466Z,1020.25
2018-05-04T03:43:46.329Z,1020.24
2018-05-04T03:44:46.323Z,1020.22
2018-05-04T03:45:46.327Z,1020.27
2018-05-04T03:46:46.340Z,1020.24
2018-05-04T03:47:46.449Z,1020.24
2018-05-04T03:48:46.333Z,1020.2
2018-05-04T03:49:46.337Z,1020.29
2018-05-04T03:50:46.358Z,1020.27
2018-05-04T03:51:46.319Z,1020.27
2018-05-04T03:52:46.384Z,1020.28
2018-05-04T03:53:46.320Z,1020.29
2018-05-04T03:54:46.349Z,1020.32
2018-05-04T03:55:46.339Z,1020.34
2018-05-04T03:56:46.365Z,1020.33
2018-05-04T03:57:46.319Z,1020.34
2018-05-04T03:58:46.328Z,1020.31
2018-05-04T03:59:46.330Z,1020.36
2018-05-04T04:00:46.344Z,1020.35
2018-05-04T04:01:46.365Z,1020.38
2018-05-04T04:02:46.334Z,1020.36
2018-05-04T04:03:46.332Z,1020.37
2018-05-04T04:04:46.463Z,1020.37
2018-05-04T04:05:46.355Z,1020.38
2018-05-04T04:06:46.336Z,1020.39
2018-05-04T04:07:46.327Z,1020.41
2018-05-04T04:08:46.363Z,1020.4
2018-05-04T04:09:46.331Z,1020.44
2018-05-04T04:10:46.345Z,1020.44
2018-05-04T04:11:46.335Z,1020.47
2018-05-04T04:12:46.366Z,1020.42
2018-05-04T04:13:46.341Z,1020.49
2018-05-04T04:14:46.334Z,1020.43
2018-05-04T04:15:46.352Z,1020.42
2018-05-04T04:16:46.340Z,1020.44
2018-05-04T04:17:46.367Z,1020.44
2018-05-04T04:18:46.354Z,1020.4
2018-05-04T04:19:46.352Z,1020.39
2018-05-04T04:20:46.376Z,1020.43
2018-05-04T04:21:46.383Z,1020.43
2018-05-04T04:22:46.377Z,1020.46
2018-05-04T04:23:46.420Z,1020.51
2018-05-04T04:24:46.386Z,1020.48
2018-05-04T04:25:46.360Z,1020.52
2018-05-04T04:26:46.356Z,1020.58
2018-05-04T04:27:46.341Z,1020.55
2018-05-04T04:28:46.351Z,1020.6
2018-05-04T04:29:46.374Z,1020.63
2018-05-04T04:30:46.371Z,1020.63
2018-05-04T04:31:46.350Z,1020.66
2018-05-04T04:32:46.392Z,1020.69
2018-05-04T04:33:46.365Z,1020.7
2018-05-04T04:34:46.362Z,1020.67
2018-05-04T04:35:46.371Z,1020.68
2018-05-04T04:36:46.423Z,1020.68
2018-05-04T04:37:46.360Z,1020.67
2018-05-04T04:38:46.461Z,1020.72
2018-05-04T04:39:46.377Z,1020.73
2018-05-04T04:40:46.370Z,1020.74
2018-05-04T04:41:46.366Z,1020.74
2018-05-04T04:42:46.380Z,1020.79
2018-05-04T04:43:46.345Z,1020.74
2018-05-04T04:44:46.339Z,1020.75
2018-05-04T04:45:46.363Z,1020.77
2018-05-04T04:46:46.375Z,1020.74
2018-05-04T04:47:46.445Z,1020.79
2018-05-04T04:48:46.364Z,1020.74
2018-05-04T04:49:46.382Z,1020.74
2018-05-04T04:50:46.377Z,1020.79
2018-05-04T04:51:46.360Z,1020.77
2018-05-04T04:52:46.515Z,1020.77
2018-05-04T04:53:46.371Z,1020.8
2018-05-04T04:54:46.351Z,1020.82
2018-05-04T04:55:46.353Z,1020.85
2018-05-04T04:56:46.389Z,1020.84
2018-05-04T04:57:46.372Z,1020.85
2018-05-04T04:58:46.362Z,1020.81
2018-05-04T04:59:46.359Z,1020.83
2018-05-04T05:00:46.372Z,1020.82
2018-05-04T05:01:46.455Z,1020.87
2018-05-04T05:02:46.402Z,1020.89
2018-05-04T05:03:46.366Z,1020.91
2018-05-04T05:04:46.382Z,1020.94
2018-05-04T05:05:46.384Z,1020.92
2018-05-04T05:06:46.359Z,1020.93
2018-05-04T05:07:46.377Z,1020.92
2018-05-04T05:08:46.373Z,1020.92
2018-05-04T05:09:46.397Z,1020.95
2018-05-04T05:10:46.388Z,1020.96
2018-05-04T05:11:46.390Z,1020.97
2018-05-04T05:12:46.517Z,1020.97
2018-05-04T05:13:46.459Z,1020.97
2018-05-04T05:14:46.406Z,1020.97
2018-05-04T05:15:46.396Z,1020.91
2018-05-04T05:16:46.393Z,1020.93
2018-05-04T05:17:46.391Z,1020.93
2018-05-04T05:18:46.390Z,1020.94
2018-05-04T05:19:46.407Z,1020.94
2018-05-04T05:20:46.396Z,1020.97
2018-05-04T05:21:46.518Z,1020.99
2018-05-04T05:22:46.586Z,1020.98
2018-05-04T05:23:46.564Z,1020.99
2018-05-04T05:24:46.398Z,1020.97
2018-05-04T05:25:46.415Z,1020.95
2018-05-04T05:26:47.278Z,1020.93
2018-05-04T05:27:46.402Z,1020.98
2018-05-04T05:28:46.385Z,1020.99
2018-05-04T05:29:46.380Z,1020.98
2018-05-04T05:30:46.389Z,1020.96
2018-05-04T05:31:46.374Z,1020.98
2018-05-04T05:32:46.390Z,1020.94
2018-05-04T05:33:46.408Z,1020.97
2018-05-04T05:34:46.526Z,1021
2018-05-04T05:35:46.382Z,1021
2018-05-04T05:36:46.852Z,1020.99
2018-05-04T05:37:46.399Z,1021.01
2018-05-04T05:38:46.860Z,1020.99
2018-05-04T05:39:46.406Z,1020.98
2018-05-04T05:40:46.403Z,1021
2018-05-04T05:41:46.396Z,1021.02
2018-05-04T05:42:46.486Z,1020.98
2018-05-04T05:43:46.730Z,1020.99
2018-05-04T05:44:46.529Z,1021.02
2018-05-04T05:45:46.462Z,1021.01
2018-05-04T05:46:46.535Z,1020.99
2018-05-04T05:47:46.402Z,1020.94
2018-05-04T05:48:46.396Z,1020.99
2018-05-04T05:49:46.400Z,1021
2018-05-04T05:50:46.398Z,1021.01
2018-05-04T05:51:46.455Z,1021.01
2018-05-04T05:52:46.398Z,1020.95
2018-05-04T05:53:46.570Z,1021.02
2018-05-04T05:54:46.405Z,1020.96
2018-05-04T05:55:46.411Z,1021
2018-05-04T05:56:46.402Z,1020.99
2018-05-04T05:57:47.562Z,1020.94
2018-05-04T05:58:46.435Z,1020.96
2018-05-04T05:59:46.418Z,1020.95
2018-05-04T06:00:46.877Z,1020.98
2018-05-04T06:01:46.407Z,1020.95
2018-05-04T06:02:46.414Z,1020.94
2018-05-04T06:03:46.425Z,1020.96
2018-05-04T06:04:46.921Z,1020.95
2018-05-04T06:05:46.413Z,1020.92
2018-05-04T06:06:46.421Z,1020.93
2018-05-04T06:07:46.411Z,1020.91
2018-05-04T06:08:46.416Z,1020.91
2018-05-04T06:09:46.409Z,1020.92
2018-05-04T06:10:46.403Z,1020.89
2018-05-04T06:11:46.427Z,1020.85
2018-05-04T06:12:46.402Z,1020.88
2018-05-04T06:13:46.407Z,1020.89
2018-05-04T06:14:46.393Z,1020.86
2018-05-04T06:15:46.376Z,1020.9
2018-05-04T06:16:46.385Z,1020.87
2018-05-04T06:17:46.393Z,1020.87
2018-05-04T06:18:46.439Z,1020.92
2018-05-04T06:19:46.409Z,1020.89
2018-05-04T06:20:46.415Z,1020.9
2018-05-04T06:21:46.579Z,1020.86
2018-05-04T06:22:46.426Z,1020.87
2018-05-04T06:23:46.412Z,1020.82
2018-05-04T06:24:46.407Z,1020.85
2018-05-04T06:25:47.025Z,1020.89
2018-05-04T06:26:46.395Z,1020.85
2018-05-04T06:27:46.432Z,1020.86
2018-05-04T06:28:47.419Z,1020.85
2018-05-04T06:29:46.393Z,1020.81
2018-05-04T06:30:46.430Z,1020.9
2018-05-04T06:31:46.466Z,1020.88
2018-05-04T06:32:46.504Z,1020.91
2018-05-04T06:33:46.569Z,1020.91
2018-05-04T06:34:46.415Z,1020.9
2018-05-04T06:35:46.417Z,1020.83
2018-05-04T06:36:46.477Z,1020.88
2018-05-04T06:37:46.621Z,1020.86
2018-05-04T06:38:46.972Z,1020.84
2018-05-04T06:39:46.694Z,1020.8
2018-05-04T06:40:46.460Z,1020.85
2018-05-04T06:41:46.407Z,1020.8
2018-05-04T06:42:46.419Z,1020.81
2018-05-04T06:43:46.435Z,1020.77
2018-05-04T06:44:46.435Z,1020.82
2018-05-04T06:45:46.816Z,1020.75
2018-05-04T06:46:46.412Z,1020.78
2018-05-04T06:47:46.395Z,1020.79
2018-05-04T06:48:47.107Z,1020.81
2018-05-04T06:49:46.432Z,1020.8
2018-05-04T06:50:46.418Z,1020.81
2018-05-04T06:51:46.407Z,1020.82
2018-05-04T06:52:46.404Z,1020.85
2018-05-04T06:53:46.408Z,1020.85
2018-05-04T06:54:46.489Z,1020.83
2018-05-04T06:55:46.717Z,1020.79
2018-05-04T06:56:46.424Z,1020.81
2018-05-04T06:57:46.448Z,1020.78
2018-05-04T06:58:46.449Z,1020.8
2018-05-04T07:00:03.143Z,1020.81
2018-05-04T07:00:47.430Z,1020.8
2018-05-04T07:01:46.401Z,1020.78
2018-05-04T07:02:47.488Z,1020.76
2018-05-04T07:03:46.516Z,1020.71
2018-05-04T07:04:46.420Z,1020.71
2018-05-04T07:05:46.486Z,1020.74
2018-05-04T07:06:46.409Z,1020.72
2018-05-04T07:07:46.410Z,1020.69
2018-05-04T07:08:46.461Z,1020.74
2018-05-04T07:09:49.226Z,1020.76
2018-05-04T07:10:52.188Z,1020.77
2018-05-04T07:11:46.453Z,1020.77
2018-05-04T07:12:46.425Z,1020.81
2018-05-04T07:13:46.426Z,1020.8
2018-05-04T07:14:47.956Z,1020.78
2018-05-04T07:15:46.484Z,1020.8
2018-05-04T07:16:46.416Z,1020.79
2018-05-04T07:17:46.434Z,1020.77
2018-05-04T07:18:46.414Z,1020.79
2018-05-04T07:19:47.810Z,1020.74
2018-05-04T07:20:46.427Z,1020.76
2018-05-04T07:21:46.446Z,1020.79
2018-05-04T07:22:46.922Z,1020.79
2018-05-04T07:23:46.500Z,1020.82
2018-05-04T07:24:46.457Z,1020.81
2018-05-04T07:25:46.450Z,1020.82
2018-05-04T07:26:46.501Z,1020.78
2018-05-04T07:27:46.481Z,1020.81
2018-05-04T07:28:46.524Z,1020.78
2018-05-04T07:29:46.436Z,1020.8
2018-05-04T07:30:46.434Z,1020.75
2018-05-04T07:31:46.453Z,1020.75
2018-05-04T07:32:46.428Z,1020.75
2018-05-04T07:33:46.429Z,1020.77
2018-05-04T07:34:46.894Z,1020.71
2018-05-04T07:35:46.441Z,1020.69
2018-05-04T07:36:46.594Z,1020.7
2018-05-04T07:37:46.600Z,1020.67
2018-05-04T07:38:46.435Z,1020.65
2018-05-04T07:39:46.920Z,1020.64
2018-05-04T07:40:46.433Z,1020.61
2018-05-04T07:41:46.517Z,1020.59
2018-05-04T07:42:46.839Z,1020.59
2018-05-04T07:43:46.751Z,1020.59
2018-05-04T07:44:46.488Z,1020.54
2018-05-04T07:45:46.662Z,1020.55
2018-05-04T07:46:46.755Z,1020.49
2018-05-04T07:47:46.559Z,1020.52
2018-05-04T07:48:46.770Z,1020.49
2018-05-04T07:49:46.572Z,1020.52
2018-05-04T07:50:46.459Z,1020.49
2018-05-04T07:51:46.427Z,1020.5
2018-05-04T07:52:48.960Z,1020.52
2018-05-04T07:53:46.705Z,1020.58
2018-05-04T07:54:46.715Z,1020.59
2018-05-04T07:55:46.446Z,1020.58
2018-05-04T07:56:46.521Z,1020.62
2018-05-04T07:57:46.532Z,1020.63
2018-05-04T07:58:46.634Z,1020.65
2018-05-04T07:59:46.541Z,1020.67
2018-05-04T08:00:46.545Z,1020.62
2018-05-04T08:01:46.483Z,1020.6
2018-05-04T08:02:46.471Z,1020.58
2018-05-04T08:03:46.451Z,1020.59
2018-05-04T08:04:46.459Z,1020.62
2018-05-04T08:05:46.447Z,1020.62
2018-05-04T08:06:46.586Z,1020.68
2018-05-04T08:07:46.476Z,1020.67
2018-05-04T08:08:46.477Z,1020.66
2018-05-04T08:09:46.453Z,1020.65
2018-05-04T08:10:46.477Z,1020.65
2018-05-04T08:11:46.467Z,1020.66
2018-05-04T08:12:46.443Z,1020.67
2018-05-04T08:13:46.842Z,1020.7
2018-05-04T08:14:46.474Z,1020.72
2018-05-04T08:15:46.551Z,1020.77
2018-05-04T08:16:46.456Z,1020.79
2018-05-04T08:17:46.489Z,1020.75
2018-05-04T08:18:46.455Z,1020.77
2018-05-04T08:19:46.483Z,1020.7
2018-05-04T08:20:46.512Z,1020.69
2018-05-04T08:21:46.458Z,1020.68
2018-05-04T08:22:46.476Z,1020.66
2018-05-04T08:23:46.595Z,1020.7
2018-05-04T08:24:46.453Z,1020.66
2018-05-04T08:25:46.517Z,1020.7
2018-05-04T08:26:46.450Z,1020.74
2018-05-04T08:27:46.628Z,1020.71
2018-05-04T08:28:46.485Z,1020.7
2018-05-04T08:29:46.841Z,1020.67
2018-05-04T08:30:46.460Z,1020.71
2018-05-04T08:31:46.490Z,1020.67
2018-05-04T08:32:46.592Z,1020.67
2018-05-04T08:33:46.445Z,1020.67
2018-05-04T08:34:46.780Z,1020.71
2018-05-04T08:35:46.491Z,1020.7
2018-05-04T08:36:46.485Z,1020.68
2018-05-04T08:37:46.491Z,1020.62
2018-05-04T08:38:46.483Z,1020.64
2018-05-04T08:39:46.468Z,1020.62
2018-05-04T08:40:46.599Z,1020.67
2018-05-04T08:41:46.481Z,1020.59
2018-05-04T08:42:46.628Z,1020.59
2018-05-04T08:43:46.468Z,1020.57
2018-05-04T08:44:46.504Z,1020.53
2018-05-04T08:45:46.478Z,1020.49
2018-05-04T08:46:46.593Z,1020.51
2018-05-04T08:47:46.457Z,1020.51
2018-05-04T08:48:46.482Z,1020.51
2018-05-04T08:49:46.499Z,1020.5
2018-05-04T08:50:47.338Z,1020.5
2018-05-04T08:51:46.500Z,1020.5
2018-05-04T08:52:46.457Z,1020.53
2018-05-04T08:53:46.523Z,1020.49
2018-05-04T08:54:46.606Z,1020.44
2018-05-04T08:55:46.466Z,1020.44
2018-05-04T08:56:46.630Z,1020.42
2018-05-04T08:57:46.631Z,1020.42
2018-05-04T08:58:46.492Z,1020.44
2018-05-04T08:59:46.846Z,1020.4
2018-05-04T09:00:46.854Z,1020.37
2018-05-04T09:01:46.594Z,1020.36
2018-05-04T09:02:46.764Z,1020.32
2018-05-04T09:03:46.584Z,1020.31
2018-05-04T09:04:46.487Z,1020.27
2018-05-04T09:05:46.517Z,1020.28
2018-05-04T09:06:46.515Z,1020.29
2018-05-04T09:07:46.525Z,1020.32
2018-05-04T09:08:46.501Z,1020.31
2018-05-04T09:09:46.509Z,1020.32
2018-05-04T09:10:46.479Z,1020.25
2018-05-04T09:11:46.579Z,1020.29
2018-05-04T09:12:46.508Z,1020.29
2018-05-04T09:13:46.485Z,1020.27
2018-05-04T09:14:46.657Z,1020.23
2018-05-04T09:15:46.526Z,1020.23
2018-05-04T09:16:46.519Z,1020.22
2018-05-04T09:17:46.492Z,1020.21
2018-05-04T09:18:46.571Z,1020.17
2018-05-04T09:19:46.654Z,1020.2
2018-05-04T09:20:46.501Z,1020.17
2018-05-04T09:21:46.491Z,1020.15
2018-05-04T09:22:46.518Z,1020.2
2018-05-04T09:23:46.494Z,1020.13
2018-05-04T09:24:46.528Z,1020.15
2018-05-04T09:25:46.480Z,1020.17
2018-05-04T09:26:46.477Z,1020.13
2018-05-04T09:27:46.498Z,1020.13
2018-05-04T09:28:46.551Z,1020.15
2018-05-04T09:29:46.515Z,1020.1
2018-05-04T09:30:46.761Z,1020.08
2018-05-04T09:31:46.490Z,1020.05
2018-05-04T09:32:46.611Z,1020.05
2018-05-04T09:33:46.871Z,1020.04
2018-05-04T09:34:46.537Z,1019.99
2018-05-04T09:35:46.493Z,1020
2018-05-04T09:36:46.480Z,1020.01
2018-05-04T09:37:46.516Z,1020
2018-05-04T09:38:46.516Z,1019.96
2018-05-04T09:39:46.513Z,1019.95
2018-05-04T09:40:46.510Z,1020
2018-05-04T09:41:46.510Z,1020
2018-05-04T09:42:46.565Z,1019.96
2018-05-04T09:43:46.804Z,1020
2018-05-04T09:44:46.532Z,1019.98
2018-05-04T09:45:46.610Z,1019.96
2018-05-04T09:46:46.564Z,1019.95
2018-05-04T09:47:46.509Z,1019.99
2018-05-04T09:48:46.500Z,1019.97
2018-05-04T09:49:47.016Z,1019.96
2018-05-04T09:50:46.501Z,1019.97
2018-05-04T09:51:46.528Z,1019.96
2018-05-04T09:52:46.706Z,1019.97
2018-05-04T09:53:46.494Z,1019.95
2018-05-04T09:54:46.529Z,1019.95
2018-05-04T09:55:46.542Z,1019.96
2018-05-04T09:56:46.598Z,1019.92
2018-05-04T09:57:46.554Z,1019.85
2018-05-04T09:58:46.528Z,1019.83
2018-05-04T09:59:46.526Z,1019.81
2018-05-04T10:00:46.544Z,1019.83
2018-05-04T10:01:46.528Z,1019.84
2018-05-04T10:02:46.520Z,1019.82
2018-05-04T10:03:46.555Z,1019.8
2018-05-04T10:04:46.507Z,1019.82
2018-05-04T10:05:46.511Z,1019.76
2018-05-04T10:06:46.568Z,1019.84
2018-05-04T10:07:46.544Z,1019.81
2018-05-04T10:08:46.568Z,1019.81
2018-05-04T10:09:46.550Z,1019.8
2018-05-04T10:10:46.529Z,1019.79
2018-05-04T10:11:46.529Z,1019.75
2018-05-04T10:12:46.599Z,1019.8
2018-05-04T10:13:46.533Z,1019.8
2018-05-04T10:14:46.558Z,1019.79
2018-05-04T10:15:46.549Z,1019.78
2018-05-04T10:16:46.562Z,1019.83
2018-05-04T10:17:47.073Z,1019.77
2018-05-04T10:18:47.122Z,1019.77
2018-05-04T10:19:46.525Z,1019.73
2018-05-04T10:20:46.560Z,1019.73
2018-05-04T10:21:46.539Z,1019.7
2018-05-04T10:22:46.812Z,1019.71
2018-05-04T10:23:46.544Z,1019.7
2018-05-04T10:24:46.530Z,1019.66
2018-05-04T10:25:46.639Z,1019.63
2018-05-04T10:26:46.579Z,1019.67
2018-05-04T10:27:46.544Z,1019.58
2018-05-04T10:28:46.535Z,1019.57
2018-05-04T10:29:46.657Z,1019.63
2018-05-04T10:30:46.564Z,1019.58
2018-05-04T10:31:46.535Z,1019.52
2018-05-04T10:32:46.519Z,1019.59
2018-05-04T10:33:46.527Z,1019.52
2018-05-04T10:34:46.658Z,1019.56
2018-05-04T10:35:46.555Z,1019.6
2018-05-04T10:36:46.522Z,1019.61
2018-05-04T10:37:46.611Z,1019.6
2018-05-04T10:38:46.783Z,1019.56
2018-05-04T10:39:46.586Z,1019.58
2018-05-04T10:40:46.556Z,1019.55
2018-05-04T10:41:46.572Z,1019.54
2018-05-04T10:42:46.564Z,1019.53
2018-05-04T10:43:46.529Z,1019.53
2018-05-04T10:44:46.597Z,1019.54
2018-05-04T10:45:46.564Z,1019.61
2018-05-04T10:46:46.527Z,1019.56
2018-05-04T10:47:46.662Z,1019.5
2018-05-04T10:48:46.566Z,1019.46
2018-05-04T10:49:46.571Z,1019.52
2018-05-04T10:50:46.691Z,1019.58
2018-05-04T10:51:46.680Z,1019.48
2018-05-04T10:52:46.706Z,1019.53
2018-05-04T10:53:46.530Z,1019.49
2018-05-04T10:54:46.534Z,1019.53
2018-05-04T10:55:46.577Z,1019.58
2018-05-04T10:56:46.729Z,1019.57
2018-05-04T10:57:46.732Z,1019.5
2018-05-04T10:58:46.585Z,1019.52
2018-05-04T10:59:46.557Z,1019.54
2018-05-04T11:00:46.652Z,1019.55
2018-05-04T11:01:46.654Z,1019.54
2018-05-04T11:02:46.559Z,1019.48
2018-05-04T11:03:46.558Z,1019.5
2018-05-04T11:04:47.010Z,1019.46
2018-05-04T11:05:46.604Z,1019.5
2018-05-04T11:06:46.549Z,1019.49
2018-05-04T11:07:46.560Z,1019.44
2018-05-04T11:08:46.567Z,1019.52
2018-05-04T11:09:46.918Z,1019.51
2018-05-04T11:10:46.601Z,1019.45
2018-05-04T11:11:46.583Z,1019.49
2018-05-04T11:12:46.649Z,1019.45
2018-05-04T11:13:46.559Z,1019.51
2018-05-04T11:14:46.953Z,1019.49
2018-05-04T11:15:46.552Z,1019.43
2018-05-04T11:16:46.608Z,1019.39
2018-05-04T11:17:46.727Z,1019.42
2018-05-04T11:18:46.654Z,1019.41
2018-05-04T11:19:46.605Z,1019.43
2018-05-04T11:20:46.599Z,1019.42
2018-05-04T11:21:46.592Z,1019.4
2018-05-04T11:22:46.613Z,1019.39
2018-05-04T11:23:46.564Z,1019.39
2018-05-04T11:24:46.621Z,1019.32
2018-05-04T11:25:46.644Z,1019.32
2018-05-04T11:26:46.689Z,1019.3
2018-05-04T11:27:46.833Z,1019.29
2018-05-04T11:28:46.864Z,1019.33
2018-05-04T11:29:46.853Z,1019.33
2018-05-04T11:30:46.781Z,1019.32
2018-05-04T11:31:46.662Z,1019.31
2018-05-04T11:32:46.768Z,1019.31
2018-05-04T11:33:46.879Z,1019.29
2018-05-04T11:34:47.093Z,1019.25
2018-05-04T11:35:46.794Z,1019.27
2018-05-04T11:36:47.767Z,1019.3
2018-05-04T11:37:46.679Z,1019.28
2018-05-04T11:38:46.819Z,1019.28
2018-05-04T11:39:46.813Z,1019.26
2018-05-04T11:40:46.820Z,1019.29
2018-05-04T11:41:46.725Z,1019.28
2018-05-04T11:42:46.708Z,1019.24
2018-05-04T11:43:46.700Z,1019.21
2018-05-04T11:44:46.980Z,1019.25
2018-05-04T11:45:46.837Z,1019.23
2018-05-04T11:46:46.752Z,1019.27
2018-05-04T11:47:46.751Z,1019.24
2018-05-04T11:48:46.777Z,1019.25
2018-05-04T11:49:48.113Z,1019.23
2018-05-04T11:50:46.895Z,1019.23
2018-05-04T11:51:46.696Z,1019.2
2018-05-04T11:52:46.861Z,1019.18
2018-05-04T11:53:46.705Z,1019.23
2018-05-04T11:54:46.716Z,1019.19
2018-05-04T11:55:46.706Z,1019.22
2018-05-04T11:56:46.609Z,1019.23
2018-05-04T11:57:46.629Z,1019.22
2018-05-04T11:58:46.751Z,1019.24
2018-05-04T11:59:46.741Z,1019.21
2018-05-04T12:00:46.763Z,1019.2
2018-05-04T12:01:46.757Z,1019.27
2018-05-04T12:02:46.659Z,1019.25
2018-05-04T12:03:46.575Z,1019.3
2018-05-04T12:04:46.730Z,1019.26
2018-05-04T12:05:46.577Z,1019.27
2018-05-04T12:06:47.102Z,1019.27
2018-05-04T12:07:48.335Z,1019.23
2018-05-04T12:08:46.581Z,1019.26